sensor_id;sensor_type;location;lat;lon;timestamp;P1;durP1;ratioP1;P2;durP2;ratioP2
56720;SDS011;53183;47.412;18.884;2024-03-23T00:52:53;28.83;;;13.70;;
56720;SDS011;53183;47.412;18.884;2024-03-23T00:55:20;26.90;;;13.20;;
56720;SDS011;53183;47.412;18.884;2024-03-23T00:57:46;25.08;;;12.35;;
56720;SDS011;53183;47.412;18.884;2024-03-23T01:00:13;26.25;;;14.23;;
56720;SDS011;53183;47.412;18.884;2024-03-23T01:02:44;30.15;;;14.10;;
56720;SDS011;53183;47.412;18.884;2024-03-23T01:05:10;22.58;;;12.80;;
56720;SDS011;53183;47.412;18.884;2024-03-23T01:07:36;28.58;;;13.73;;
56720;SDS011;53183;47.412;18.884;2024-03-23T01:10:03;32.85;;;13.95;;
56720;SDS011;53183;47.412;18.884;2024-03-23T01:12:30;41.55;;;20.50;;
56720;SDS011;53183;47.412;18.884;2024-03-23T01:14:56;41.45;;;23.02;;
56720;SDS011;53183;47.412;18.884;2024-03-23T01:17:22;42.67;;;24.30;;
56720;SDS011;53183;47.412;18.884;2024-03-23T01:19:48;44.05;;;23.83;;
56720;SDS011;53183;47.412;18.884;2024-03-23T01:22:15;43.87;;;23.38;;
56720;SDS011;53183;47.412;18.884;2024-03-23T01:24:43;39.25;;;21.37;;
56720;SDS011;53183;47.412;18.884;2024-03-23T01:27:10;38.13;;;20.05;;
56720;SDS011;53183;47.412;18.884;2024-03-23T01:29:36;38.78;;;19.55;;
56720;SDS011;53183;47.412;18.884;2024-03-23T01:32:02;35.15;;;19.73;;
56720;SDS011;53183;47.412;18.884;2024-03-23T01:34:29;40.17;;;22.00;;
56720;SDS011;53183;47.412;18.884;2024-03-23T01:36:55;34.80;;;19.12;;
56720;SDS011;53183;47.412;18.884;2024-03-23T01:39:22;31.65;;;16.65;;
56720;SDS011;53183;47.412;18.884;2024-03-23T01:41:48;34.45;;;18.02;;
56720;SDS011;53183;47.412;18.884;2024-03-23T01:44:15;29.20;;;16.73;;
56720;SDS011;53183;47.412;18.884;2024-03-23T01:46:42;25.77;;;14.48;;
56720;SDS011;53183;47.412;18.884;2024-03-23T01:49:09;27.55;;;14.45;;
56720;SDS011;53183;47.412;18.884;2024-03-23T01:51:36;29.70;;;15.48;;
56720;SDS011;53183;47.412;18.884;2024-03-23T01:54:03;27.00;;;15.13;;
56720;SDS011;53183;47.412;18.884;2024-03-23T01:56:32;34.17;;;15.60;;
56720;SDS011;53183;47.412;18.884;2024-03-23T01:59:04;30.83;;;15.35;;
56720;SDS011;53183;47.412;18.884;2024-03-23T02:01:31;30.23;;;15.00;;
56720;SDS011;53183;47.412;18.884;2024-03-23T02:03:58;35.17;;;15.43;;
56720;SDS011;53183;47.412;18.884;2024-03-23T02:06:25;25.77;;;13.48;;
56720;SDS011;53183;47.412;18.884;2024-03-23T02:08:52;27.62;;;13.65;;
56720;SDS011;53183;47.412;18.884;2024-03-23T02:11:22;32.13;;;17.58;;
56720;SDS011;53183;47.412;18.884;2024-03-23T02:13:48;31.73;;;14.05;;
56720;SDS011;53183;47.412;18.884;2024-03-23T02:16:14;29.60;;;15.27;;
56720;SDS011;53183;47.412;18.884;2024-03-23T02:18:40;29.67;;;14.87;;
56720;SDS011;53183;47.412;18.884;2024-03-23T02:21:06;31.95;;;15.18;;
56720;SDS011;53183;47.412;18.884;2024-03-23T02:23:32;28.73;;;15.75;;
56720;SDS011;53183;47.412;18.884;2024-03-23T02:25:59;29.48;;;14.55;;
56720;SDS011;53183;47.412;18.884;2024-03-23T02:28:25;32.03;;;14.43;;
56720;SDS011;53183;47.412;18.884;2024-03-23T02:30:52;30.88;;;15.65;;
56720;SDS011;53183;47.412;18.884;2024-03-23T02:33:18;30.83;;;14.87;;
56720;SDS011;53183;47.412;18.884;2024-03-23T02:35:45;31.83;;;15.85;;
56720;SDS011;53183;47.412;18.884;2024-03-23T02:38:12;31.48;;;15.60;;
56720;SDS011;53183;47.412;18.884;2024-03-23T02:40:39;25.70;;;14.50;;
56720;SDS011;53183;47.412;18.884;2024-03-23T02:43:05;33.13;;;16.87;;
56720;SDS011;53183;47.412;18.884;2024-03-23T02:45:32;26.65;;;14.60;;
56720;SDS011;53183;47.412;18.884;2024-03-23T02:48:00;33.63;;;14.70;;
56720;SDS011;53183;47.412;18.884;2024-03-23T02:50:27;32.10;;;15.98;;
56720;SDS011;53183;47.412;18.884;2024-03-23T02:52:53;37.33;;;16.37;;
56720;SDS011;53183;47.412;18.884;2024-03-23T02:55:19;29.35;;;15.23;;
56720;SDS011;53183;47.412;18.884;2024-03-23T02:57:46;32.65;;;16.40;;
56720;SDS011;53183;47.412;18.884;2024-03-23T03:00:12;32.20;;;16.35;;
56720;SDS011;53183;47.412;18.884;2024-03-23T03:02:41;31.80;;;16.80;;
56720;SDS011;53183;47.412;18.884;2024-03-23T03:05:08;30.50;;;15.65;;
56720;SDS011;53183;47.412;18.884;2024-03-23T03:07:35;31.12;;;17.12;;
56720;SDS011;53183;47.412;18.884;2024-03-23T03:10:01;38.70;;;17.40;;
56720;SDS011;53183;47.412;18.884;2024-03-23T03:12:27;34.92;;;16.62;;
56720;SDS011;53183;47.412;18.884;2024-03-23T03:14:53;35.47;;;16.92;;
56720;SDS011;53183;47.412;18.884;2024-03-23T03:17:20;29.35;;;15.93;;
56720;SDS011;53183;47.412;18.884;2024-03-23T03:19:46;36.92;;;16.33;;
56720;SDS011;53183;47.412;18.884;2024-03-23T03:22:13;33.17;;;16.08;;
56720;SDS011;53183;47.412;18.884;2024-03-23T03:24:39;35.13;;;17.00;;
56720;SDS011;53183;47.412;18.884;2024-03-23T03:27:05;28.48;;;15.25;;
56720;SDS011;53183;47.412;18.884;2024-03-23T03:29:33;29.37;;;15.07;;
56720;SDS011;53183;47.412;18.884;2024-03-23T03:32:02;30.33;;;15.85;;
56720;SDS011;53183;47.412;18.884;2024-03-23T03:34:29;32.70;;;15.02;;
56720;SDS011;53183;47.412;18.884;2024-03-23T03:36:56;29.27;;;15.07;;
56720;SDS011;53183;47.412;18.884;2024-03-23T03:39:26;30.52;;;16.05;;
56720;SDS011;53183;47.412;18.884;2024-03-23T03:41:57;32.50;;;16.67;;
56720;SDS011;53183;47.412;18.884;2024-03-23T03:44:23;33.08;;;17.15;;
56720;SDS011;53183;47.412;18.884;2024-03-23T03:46:49;33.63;;;17.48;;
56720;SDS011;53183;47.412;18.884;2024-03-23T03:49:17;30.80;;;17.30;;
56720;SDS011;53183;47.412;18.884;2024-03-23T03:51:44;31.12;;;17.08;;
56720;SDS011;53183;47.412;18.884;2024-03-23T03:54:10;33.95;;;18.08;;
56720;SDS011;53183;47.412;18.884;2024-03-23T03:56:36;32.00;;;17.15;;
56720;SDS011;53183;47.412;18.884;2024-03-23T03:59:02;32.08;;;17.17;;
56720;SDS011;53183;47.412;18.884;2024-03-23T04:01:29;44.45;;;18.00;;
56720;SDS011;53183;47.412;18.884;2024-03-23T04:03:55;31.37;;;17.15;;
56720;SDS011;53183;47.412;18.884;2024-03-23T04:06:21;32.60;;;16.77;;
56720;SDS011;53183;47.412;18.884;2024-03-23T04:08:47;29.60;;;15.88;;
56720;SDS011;53183;47.412;18.884;2024-03-23T04:11:14;30.27;;;16.42;;
56720;SDS011;53183;47.412;18.884;2024-03-23T04:13:40;32.70;;;15.80;;
56720;SDS011;53183;47.412;18.884;2024-03-23T04:16:12;30.95;;;15.88;;
56720;SDS011;53183;47.412;18.884;2024-03-23T04:18:38;32.05;;;16.98;;
56720;SDS011;53183;47.412;18.884;2024-03-23T04:21:04;28.85;;;15.43;;
56720;SDS011;53183;47.412;18.884;2024-03-23T04:23:30;27.98;;;14.55;;
56720;SDS011;53183;47.412;18.884;2024-03-23T04:25:57;30.50;;;16.02;;
56720;SDS011;53183;47.412;18.884;2024-03-23T04:28:28;29.98;;;15.35;;
56720;SDS011;53183;47.412;18.884;2024-03-23T04:30:54;28.33;;;15.85;;
56720;SDS011;53183;47.412;18.884;2024-03-23T04:33:21;31.73;;;16.02;;
56720;SDS011;53183;47.412;18.884;2024-03-23T04:35:49;29.45;;;14.93;;
56720;SDS011;53183;47.412;18.884;2024-03-23T04:38:15;31.12;;;15.40;;
56720;SDS011;53183;47.412;18.884;2024-03-23T04:40:42;25.67;;;14.10;;
56720;SDS011;53183;47.412;18.884;2024-03-23T04:43:08;27.13;;;15.27;;
56720;SDS011;53183;47.412;18.884;2024-03-23T04:45:34;25.77;;;14.48;;
56720;SDS011;53183;47.412;18.884;2024-03-23T04:48:00;33.72;;;15.70;;
56720;SDS011;53183;47.412;18.884;2024-03-23T04:50:27;27.23;;;15.25;;
56720;SDS011;53183;47.412;18.884;2024-03-23T04:53:07;35.40;;;17.98;;
56720;SDS011;53183;47.412;18.884;2024-03-23T04:55:34;28.45;;;17.25;;
56720;SDS011;53183;47.412;18.884;2024-03-23T04:57:59;29.15;;;17.02;;
56720;SDS011;53183;47.412;18.884;2024-03-23T05:00:26;31.40;;;18.20;;
56720;SDS011;53183;47.412;18.884;2024-03-23T05:02:54;31.98;;;17.40;;
56720;SDS011;53183;47.412;18.884;2024-03-23T05:05:19;33.22;;;17.52;;
56720;SDS011;53183;47.412;18.884;2024-03-23T05:07:45;28.58;;;17.08;;
56720;SDS011;53183;47.412;18.884;2024-03-23T05:10:12;38.47;;;18.90;;
56720;SDS011;53183;47.412;18.884;2024-03-23T05:12:39;33.15;;;17.83;;
56720;SDS011;53183;47.412;18.884;2024-03-23T05:15:06;30.55;;;17.27;;
56720;SDS011;53183;47.412;18.884;2024-03-23T05:17:33;30.52;;;18.10;;
56720;SDS011;53183;47.412;18.884;2024-03-23T05:20:00;42.33;;;20.23;;
56720;SDS011;53183;47.412;18.884;2024-03-23T05:22:27;34.60;;;19.40;;
56720;SDS011;53183;47.412;18.884;2024-03-23T05:24:53;34.35;;;18.40;;
56720;SDS011;53183;47.412;18.884;2024-03-23T05:27:19;38.55;;;19.35;;
56720;SDS011;53183;47.412;18.884;2024-03-23T05:29:45;39.85;;;17.50;;
56720;SDS011;53183;47.412;18.884;2024-03-23T05:32:16;29.10;;;16.23;;
56720;SDS011;53183;47.412;18.884;2024-03-23T05:34:43;35.92;;;17.40;;
56720;SDS011;53183;47.412;18.884;2024-03-23T05:37:09;29.42;;;16.67;;
56720;SDS011;53183;47.412;18.884;2024-03-23T05:39:36;32.25;;;17.40;;
56720;SDS011;53183;47.412;18.884;2024-03-23T05:42:02;29.25;;;15.73;;
56720;SDS011;53183;47.412;18.884;2024-03-23T05:44:28;28.58;;;17.02;;
56720;SDS011;53183;47.412;18.884;2024-03-23T05:46:54;31.92;;;17.23;;
56720;SDS011;53183;47.412;18.884;2024-03-23T05:49:20;37.40;;;18.00;;
56720;SDS011;53183;47.412;18.884;2024-03-23T05:51:46;29.10;;;16.58;;
56720;SDS011;53183;47.412;18.884;2024-03-23T05:54:13;33.53;;;16.77;;
56720;SDS011;53183;47.412;18.884;2024-03-23T05:56:40;28.73;;;16.48;;
56720;SDS011;53183;47.412;18.884;2024-03-23T05:59:06;31.87;;;16.67;;
56720;SDS011;53183;47.412;18.884;2024-03-23T06:01:33;32.28;;;17.30;;
56720;SDS011;53183;47.412;18.884;2024-03-23T06:04:00;29.80;;;16.62;;
56720;SDS011;53183;47.412;18.884;2024-03-23T06:06:27;39.35;;;20.02;;
56720;SDS011;53183;47.412;18.884;2024-03-23T06:08:55;36.47;;;17.90;;
56720;SDS011;53183;47.412;18.884;2024-03-23T06:11:22;34.38;;;17.10;;
56720;SDS011;53183;47.412;18.884;2024-03-23T06:13:48;30.23;;;15.02;;
56720;SDS011;53183;47.412;18.884;2024-03-23T06:16:14;28.40;;;13.95;;
56720;SDS011;53183;47.412;18.884;2024-03-23T06:18:40;29.83;;;14.40;;
56720;SDS011;53183;47.412;18.884;2024-03-23T06:21:12;23.40;;;13.25;;
56720;SDS011;53183;47.412;18.884;2024-03-23T06:23:39;20.83;;;12.70;;
56720;SDS011;53183;47.412;18.884;2024-03-23T06:26:06;22.70;;;13.27;;
56720;SDS011;53183;47.412;18.884;2024-03-23T06:28:32;22.23;;;13.27;;
56720;SDS011;53183;47.412;18.884;2024-03-23T06:30:58;24.15;;;13.70;;
56720;SDS011;53183;47.412;18.884;2024-03-23T06:33:24;22.67;;;13.75;;
56720;SDS011;53183;47.412;18.884;2024-03-23T06:35:50;20.05;;;12.45;;
56720;SDS011;53183;47.412;18.884;2024-03-23T06:38:18;18.70;;;13.02;;
56720;SDS011;53183;47.412;18.884;2024-03-23T06:40:44;22.65;;;12.55;;
56720;SDS011;53183;47.412;18.884;2024-03-23T06:43:14;21.92;;;13.90;;
56720;SDS011;53183;47.412;18.884;2024-03-23T06:45:40;21.50;;;11.73;;
56720;SDS011;53183;47.412;18.884;2024-03-23T06:48:06;19.50;;;12.85;;
56720;SDS011;53183;47.412;18.884;2024-03-23T06:50:33;24.73;;;12.75;;
56720;SDS011;53183;47.412;18.884;2024-03-23T06:52:59;17.75;;;11.80;;
56720;SDS011;53183;47.412;18.884;2024-03-23T06:55:28;21.27;;;13.38;;
56720;SDS011;53183;47.412;18.884;2024-03-23T06:57:54;26.73;;;14.80;;
56720;SDS011;53183;47.412;18.884;2024-03-23T07:00:20;19.40;;;13.32;;
56720;SDS011;53183;47.412;18.884;2024-03-23T07:02:46;20.45;;;12.27;;
56720;SDS011;53183;47.412;18.884;2024-03-23T07:05:14;19.48;;;13.10;;
56720;SDS011;53183;47.412;18.884;2024-03-23T07:07:40;19.70;;;12.25;;
56720;SDS011;53183;47.412;18.884;2024-03-23T07:10:07;23.62;;;13.75;;
56720;SDS011;53183;47.412;18.884;2024-03-23T07:12:52;24.58;;;13.82;;
56720;SDS011;53183;47.412;18.884;2024-03-23T07:15:18;24.45;;;13.62;;
56720;SDS011;53183;47.412;18.884;2024-03-23T07:17:48;23.62;;;13.05;;
56720;SDS011;53183;47.412;18.884;2024-03-23T07:20:14;23.83;;;14.63;;
56720;SDS011;53183;47.412;18.884;2024-03-23T07:22:42;26.40;;;14.43;;
56720;SDS011;53183;47.412;18.884;2024-03-23T07:25:10;20.55;;;13.43;;
56720;SDS011;53183;47.412;18.884;2024-03-23T07:27:36;22.42;;;14.02;;
56720;SDS011;53183;47.412;18.884;2024-03-23T07:30:02;25.50;;;14.60;;
56720;SDS011;53183;47.412;18.884;2024-03-23T07:32:29;24.52;;;15.23;;
56720;SDS011;53183;47.412;18.884;2024-03-23T07:34:55;24.77;;;15.63;;
56720;SDS011;53183;47.412;18.884;2024-03-23T07:37:22;22.37;;;14.23;;
56720;SDS011;53183;47.412;18.884;2024-03-23T07:39:48;23.65;;;14.00;;
56720;SDS011;53183;47.412;18.884;2024-03-23T07:42:14;30.92;;;15.35;;
56720;SDS011;53183;47.412;18.884;2024-03-23T07:44:41;27.10;;;15.43;;
56720;SDS011;53183;47.412;18.884;2024-03-23T07:47:07;23.90;;;15.95;;
56720;SDS011;53183;47.412;18.884;2024-03-23T07:49:35;25.90;;;15.73;;
56720;SDS011;53183;47.412;18.884;2024-03-23T07:52:01;26.65;;;15.20;;
56720;SDS011;53183;47.412;18.884;2024-03-23T07:54:27;22.37;;;14.45;;
56720;SDS011;53183;47.412;18.884;2024-03-23T07:56:54;25.15;;;15.05;;
56720;SDS011;53183;47.412;18.884;2024-03-23T07:59:21;26.20;;;15.02;;
56720;SDS011;53183;47.412;18.884;2024-03-23T08:01:47;22.77;;;14.43;;
56720;SDS011;53183;47.412;18.884;2024-03-23T08:04:13;24.67;;;15.48;;
56720;SDS011;53183;47.412;18.884;2024-03-23T08:06:39;24.02;;;13.57;;
56720;SDS011;53183;47.412;18.884;2024-03-23T08:09:09;20.20;;;14.00;;
56720;SDS011;53183;47.412;18.884;2024-03-23T08:11:36;28.55;;;13.73;;
56720;SDS011;53183;47.412;18.884;2024-03-23T08:14:03;20.40;;;13.35;;
56720;SDS011;53183;47.412;18.884;2024-03-23T08:16:30;18.52;;;12.43;;
56720;SDS011;53183;47.412;18.884;2024-03-23T08:18:56;16.17;;;10.85;;
56720;SDS011;53183;47.412;18.884;2024-03-23T08:21:22;17.65;;;11.40;;
56720;SDS011;53183;47.412;18.884;2024-03-23T08:23:49;16.55;;;11.43;;
56720;SDS011;53183;47.412;18.884;2024-03-23T08:26:21;14.85;;;10.63;;
56720;SDS011;53183;47.412;18.884;2024-03-23T08:28:47;19.48;;;13.93;;
56720;SDS011;53183;47.412;18.884;2024-03-23T08:31:14;14.87;;;10.43;;
56720;SDS011;53183;47.412;18.884;2024-03-23T08:33:40;16.17;;;10.73;;
56720;SDS011;53183;47.412;18.884;2024-03-23T08:36:09;15.85;;;10.80;;
56720;SDS011;53183;47.412;18.884;2024-03-23T08:38:40;13.38;;;8.90;;
56720;SDS011;53183;47.412;18.884;2024-03-23T08:41:10;18.35;;;10.55;;
56720;SDS011;53183;47.412;18.884;2024-03-23T08:43:38;13.20;;;9.20;;
56720;SDS011;53183;47.412;18.884;2024-03-23T08:46:07;15.18;;;10.32;;
56720;SDS011;53183;47.412;18.884;2024-03-23T08:48:44;15.65;;;10.40;;
56720;SDS011;53183;47.412;18.884;2024-03-23T08:51:13;16.65;;;10.05;;
56720;SDS011;53183;47.412;18.884;2024-03-23T08:53:40;15.50;;;9.75;;
56720;SDS011;53183;47.412;18.884;2024-03-23T08:56:16;14.50;;;10.40;;
56720;SDS011;53183;47.412;18.884;2024-03-23T08:58:43;13.98;;;9.75;;
56720;SDS011;53183;47.412;18.884;2024-03-23T09:01:09;17.85;;;12.05;;
56720;SDS011;53183;47.412;18.884;2024-03-23T09:03:37;30.25;;;17.95;;
56720;SDS011;53183;47.412;18.884;2024-03-23T09:06:14;21.58;;;12.00;;
56720;SDS011;53183;47.412;18.884;2024-03-23T09:08:40;12.57;;;9.13;;
56720;SDS011;53183;47.412;18.884;2024-03-23T09:11:08;12.52;;;9.07;;
56720;SDS011;53183;47.412;18.884;2024-03-23T09:13:36;11.93;;;7.97;;
56720;SDS011;53183;47.412;18.884;2024-03-23T09:16:05;12.88;;;8.07;;
56720;SDS011;53183;47.412;18.884;2024-03-23T09:18:33;10.70;;;7.07;;
56720;SDS011;53183;47.412;18.884;2024-03-23T09:21:01;15.43;;;7.15;;
56720;SDS011;53183;47.412;18.884;2024-03-23T09:23:27;11.12;;;7.28;;
56720;SDS011;53183;47.412;18.884;2024-03-23T09:25:54;15.95;;;9.48;;
56720;SDS011;53183;47.412;18.884;2024-03-23T09:28:19;14.00;;;8.05;;
56720;SDS011;53183;47.412;18.884;2024-03-23T09:30:46;14.10;;;7.78;;
56720;SDS011;53183;47.412;18.884;2024-03-23T09:33:12;14.25;;;8.18;;
56720;SDS011;53183;47.412;18.884;2024-03-23T09:35:40;16.70;;;8.05;;
56720;SDS011;53183;47.412;18.884;2024-03-23T09:38:08;11.77;;;6.87;;
56720;SDS011;53183;47.412;18.884;2024-03-23T09:40:39;15.70;;;8.10;;
56720;SDS011;53183;47.412;18.884;2024-03-23T09:43:07;17.08;;;9.35;;
56720;SDS011;53183;47.412;18.884;2024-03-23T09:45:39;14.68;;;7.55;;
56720;SDS011;53183;47.412;18.884;2024-03-23T09:48:08;10.90;;;7.55;;
56720;SDS011;53183;47.412;18.884;2024-03-23T09:50:41;14.57;;;8.13;;
56720;SDS011;53183;47.412;18.884;2024-03-23T09:53:08;11.10;;;7.45;;
56720;SDS011;53183;47.412;18.884;2024-03-23T09:55:37;18.33;;;7.82;;
56720;SDS011;53183;47.412;18.884;2024-03-23T09:58:05;12.00;;;7.35;;
56720;SDS011;53183;47.412;18.884;2024-03-23T10:00:31;10.18;;;6.70;;
56720;SDS011;53183;47.412;18.884;2024-03-23T10:02:59;12.65;;;6.90;;
56720;SDS011;53183;47.412;18.884;2024-03-23T10:05:29;12.07;;;7.85;;
56720;SDS011;53183;47.412;18.884;2024-03-23T10:07:57;11.85;;;5.90;;
56720;SDS011;53183;47.412;18.884;2024-03-23T10:10:24;11.77;;;6.15;;
56720;SDS011;53183;47.412;18.884;2024-03-23T10:12:51;12.45;;;6.75;;
56720;SDS011;53183;47.412;18.884;2024-03-23T10:15:18;13.05;;;7.32;;
56720;SDS011;53183;47.412;18.884;2024-03-23T10:17:50;12.20;;;6.73;;
56720;SDS011;53183;47.412;18.884;2024-03-23T10:20:21;8.23;;;5.68;;
56720;SDS011;53183;47.412;18.884;2024-03-23T10:22:49;11.85;;;5.47;;
56720;SDS011;53183;47.412;18.884;2024-03-23T10:25:17;8.60;;;4.57;;
56720;SDS011;53183;47.412;18.884;2024-03-23T10:28:00;11.77;;;4.53;;
56720;SDS011;53183;47.412;18.884;2024-03-23T10:30:41;13.40;;;4.53;;
56720;SDS011;53183;47.412;18.884;2024-03-23T10:33:08;10.07;;;5.05;;
56720;SDS011;53183;47.412;18.884;2024-03-23T10:35:36;9.90;;;5.43;;
56720;SDS011;53183;47.412;18.884;2024-03-23T10:38:07;7.82;;;4.45;;
56720;SDS011;53183;47.412;18.884;2024-03-23T10:40:34;7.10;;;4.20;;
56720;SDS011;53183;47.412;18.884;2024-03-23T10:43:02;13.20;;;4.82;;
56720;SDS011;53183;47.412;18.884;2024-03-23T10:45:31;7.80;;;5.12;;
56720;SDS011;53183;47.412;18.884;2024-03-23T10:47:58;8.32;;;4.50;;
56720;SDS011;53183;47.412;18.884;2024-03-23T10:50:24;8.15;;;4.95;;
56720;SDS011;53183;47.412;18.884;2024-03-23T10:52:50;7.82;;;4.03;;
56720;SDS011;53183;47.412;18.884;2024-03-23T10:55:19;16.98;;;6.05;;
56720;SDS011;53183;47.412;18.884;2024-03-23T10:57:53;9.30;;;4.03;;
56720;SDS011;53183;47.412;18.884;2024-03-23T11:00:21;6.82;;;3.90;;
56720;SDS011;53183;47.412;18.884;2024-03-23T11:02:49;9.15;;;4.60;;
56720;SDS011;53183;47.412;18.884;2024-03-23T11:05:28;7.68;;;3.78;;
56720;SDS011;53183;47.412;18.884;2024-03-23T11:07:56;7.53;;;4.07;;
56720;SDS011;53183;47.412;18.884;2024-03-23T11:10:24;7.32;;;3.83;;
56720;SDS011;53183;47.412;18.884;2024-03-23T11:12:52;9.75;;;3.92;;
56720;SDS011;53183;47.412;18.884;2024-03-23T11:15:20;11.02;;;3.92;;
56720;SDS011;53183;47.412;18.884;2024-03-23T11:18:05;6.30;;;3.55;;
56720;SDS011;53183;47.412;18.884;2024-03-23T11:20:35;9.38;;;3.80;;
56720;SDS011;53183;47.412;18.884;2024-03-23T11:23:02;5.93;;;4.18;;
56720;SDS011;53183;47.412;18.884;2024-03-23T11:25:28;11.55;;;4.28;;
56720;SDS011;53183;47.412;18.884;2024-03-23T11:27:56;8.40;;;5.65;;
56720;SDS011;53183;47.412;18.884;2024-03-23T11:30:26;8.45;;;3.80;;
56720;SDS011;53183;47.412;18.884;2024-03-23T11:32:58;5.20;;;3.35;;
56720;SDS011;53183;47.412;18.884;2024-03-23T11:35:30;8.40;;;4.07;;
56720;SDS011;53183;47.412;18.884;2024-03-23T11:38:10;5.82;;;3.53;;
56720;SDS011;53183;47.412;18.884;2024-03-23T11:40:39;7.65;;;3.50;;
56720;SDS011;53183;47.412;18.884;2024-03-23T11:43:08;7.55;;;3.67;;
56720;SDS011;53183;47.412;18.884;2024-03-23T11:45:42;7.90;;;4.87;;
56720;SDS011;53183;47.412;18.884;2024-03-23T11:48:10;6.87;;;4.03;;
56720;SDS011;53183;47.412;18.884;2024-03-23T11:50:46;5.78;;;3.62;;
56720;SDS011;53183;47.412;18.884;2024-03-23T11:53:14;4.50;;;3.08;;
56720;SDS011;53183;47.412;18.884;2024-03-23T11:58:09;8.63;;;3.40;;
56720;SDS011;53183;47.412;18.884;2024-03-23T12:00:37;4.57;;;2.90;;
56720;SDS011;53183;47.412;18.884;2024-03-23T12:03:04;5.82;;;2.97;;
56720;SDS011;53183;47.412;18.884;2024-03-23T12:05:31;4.78;;;3.00;;
56720;SDS011;53183;47.412;18.884;2024-03-23T12:10:44;5.57;;;3.28;;
56720;SDS011;53183;47.412;18.884;2024-03-23T12:13:16;4.72;;;2.87;;
56720;SDS011;53183;47.412;18.884;2024-03-23T12:15:44;4.90;;;2.78;;
56720;SDS011;53183;47.412;18.884;2024-03-23T12:18:11;5.28;;;3.30;;
56720;SDS011;53183;47.412;18.884;2024-03-23T12:20:38;5.70;;;2.65;;
56720;SDS011;53183;47.412;18.884;2024-03-23T12:23:06;6.15;;;2.87;;
56720;SDS011;53183;47.412;18.884;2024-03-23T12:25:37;4.50;;;2.45;;
56720;SDS011;53183;47.412;18.884;2024-03-23T12:28:06;4.18;;;2.53;;
56720;SDS011;53183;47.412;18.884;2024-03-23T12:30:34;4.15;;;2.75;;
56720;SDS011;53183;47.412;18.884;2024-03-23T12:33:01;4.35;;;2.53;;
56720;SDS011;53183;47.412;18.884;2024-03-23T12:35:29;3.42;;;2.50;;
56720;SDS011;53183;47.412;18.884;2024-03-23T12:38:00;4.90;;;2.65;;
56720;SDS011;53183;47.412;18.884;2024-03-23T12:40:28;10.15;;;2.50;;
56720;SDS011;53183;47.412;18.884;2024-03-23T12:42:54;7.05;;;2.53;;
56720;SDS011;53183;47.412;18.884;2024-03-23T12:45:21;5.72;;;2.80;;
56720;SDS011;53183;47.412;18.884;2024-03-23T12:47:48;5.53;;;3.28;;
56720;SDS011;53183;47.412;18.884;2024-03-23T12:50:15;6.87;;;4.43;;
56720;SDS011;53183;47.412;18.884;2024-03-23T12:52:42;13.95;;;5.40;;
56720;SDS011;53183;47.412;18.884;2024-03-23T12:55:09;20.65;;;10.65;;
56720;SDS011;53183;47.412;18.884;2024-03-23T12:57:35;9.35;;;5.32;;
56720;SDS011;53183;47.412;18.884;2024-03-23T13:00:02;14.82;;;6.20;;
56720;SDS011;53183;47.412;18.884;2024-03-23T13:02:31;8.13;;;4.55;;
56720;SDS011;53183;47.412;18.884;2024-03-23T13:04:59;9.88;;;6.07;;
56720;SDS011;53183;47.412;18.884;2024-03-23T13:07:26;14.73;;;7.40;;
56720;SDS011;53183;47.412;18.884;2024-03-23T13:09:53;9.70;;;5.15;;
56720;SDS011;53183;47.412;18.884;2024-03-23T13:12:22;9.45;;;5.25;;
56720;SDS011;53183;47.412;18.884;2024-03-23T13:14:49;6.45;;;3.62;;
56720;SDS011;53183;47.412;18.884;2024-03-23T13:17:16;12.60;;;3.75;;
56720;SDS011;53183;47.412;18.884;2024-03-23T13:20:00;4.70;;;3.00;;
56720;SDS011;53183;47.412;18.884;2024-03-23T13:22:28;3.72;;;2.47;;
56720;SDS011;53183;47.412;18.884;2024-03-23T13:24:54;5.43;;;3.12;;
56720;SDS011;53183;47.412;18.884;2024-03-23T13:27:20;3.95;;;2.35;;
56720;SDS011;53183;47.412;18.884;2024-03-23T13:29:47;5.40;;;3.25;;
56720;SDS011;53183;47.412;18.884;2024-03-23T13:32:13;5.12;;;3.03;;
56720;SDS011;53183;47.412;18.884;2024-03-23T13:34:39;6.03;;;2.80;;
56720;SDS011;53183;47.412;18.884;2024-03-23T13:37:06;3.70;;;2.58;;
56720;SDS011;53183;47.412;18.884;2024-03-23T13:39:33;4.32;;;2.40;;
56720;SDS011;53183;47.412;18.884;2024-03-23T13:41:59;10.35;;;2.75;;
56720;SDS011;53183;47.412;18.884;2024-03-23T13:44:26;3.17;;;2.10;;
56720;SDS011;53183;47.412;18.884;2024-03-23T13:46:52;4.87;;;2.12;;
56720;SDS011;53183;47.412;18.884;2024-03-23T13:49:28;4.20;;;2.62;;
56720;SDS011;53183;47.412;18.884;2024-03-23T13:51:56;6.35;;;2.87;;
56720;SDS011;53183;47.412;18.884;2024-03-23T13:54:24;3.97;;;2.25;;
56720;SDS011;53183;47.412;18.884;2024-03-23T13:56:51;3.58;;;2.28;;
56720;SDS011;53183;47.412;18.884;2024-03-23T13:59:19;6.32;;;2.70;;
56720;SDS011;53183;47.412;18.884;2024-03-23T14:01:46;11.30;;;6.35;;
56720;SDS011;53183;47.412;18.884;2024-03-23T14:04:13;16.90;;;7.87;;
56720;SDS011;53183;47.412;18.884;2024-03-23T14:06:39;13.80;;;7.25;;
56720;SDS011;53183;47.412;18.884;2024-03-23T14:09:08;10.50;;;6.03;;
56720;SDS011;53183;47.412;18.884;2024-03-23T14:11:39;7.22;;;4.40;;
56720;SDS011;53183;47.412;18.884;2024-03-23T14:14:07;7.93;;;4.35;;
56720;SDS011;53183;47.412;18.884;2024-03-23T14:16:33;6.07;;;2.90;;
56720;SDS011;53183;47.412;18.884;2024-03-23T14:19:00;5.78;;;3.83;;
56720;SDS011;53183;47.412;18.884;2024-03-23T14:21:27;5.93;;;2.70;;
56720;SDS011;53183;47.412;18.884;2024-03-23T14:23:55;3.90;;;2.45;;
56720;SDS011;53183;47.412;18.884;2024-03-23T14:26:22;3.00;;;1.75;;
56720;SDS011;53183;47.412;18.884;2024-03-23T14:28:49;4.35;;;2.08;;
56720;SDS011;53183;47.412;18.884;2024-03-23T14:31:16;9.95;;;2.17;;
56720;SDS011;53183;47.412;18.884;2024-03-23T14:33:43;8.57;;;2.42;;
56720;SDS011;53183;47.412;18.884;2024-03-23T14:36:13;4.82;;;2.47;;
56720;SDS011;53183;47.412;18.884;2024-03-23T14:38:40;7.20;;;2.58;;
56720;SDS011;53183;47.412;18.884;2024-03-23T14:41:07;3.17;;;2.25;;
56720;SDS011;53183;47.412;18.884;2024-03-23T14:43:33;3.53;;;2.30;;
56720;SDS011;53183;47.412;18.884;2024-03-23T14:46:09;7.35;;;3.25;;
56720;SDS011;53183;47.412;18.884;2024-03-23T14:48:41;7.82;;;2.72;;
56720;SDS011;53183;47.412;18.884;2024-03-23T14:51:14;4.50;;;2.35;;
56720;SDS011;53183;47.412;18.884;2024-03-23T14:53:45;3.75;;;2.45;;
56720;SDS011;53183;47.412;18.884;2024-03-23T14:56:11;5.32;;;3.50;;
56720;SDS011;53183;47.412;18.884;2024-03-23T14:58:41;6.60;;;3.20;;
56720;SDS011;53183;47.412;18.884;2024-03-23T15:01:08;6.40;;;2.72;;
56720;SDS011;53183;47.412;18.884;2024-03-23T15:03:38;5.55;;;2.85;;
56720;SDS011;53183;47.412;18.884;2024-03-23T15:06:05;10.93;;;2.90;;
56720;SDS011;53183;47.412;18.884;2024-03-23T15:08:34;5.50;;;2.65;;
56720;SDS011;53183;47.412;18.884;2024-03-23T15:11:02;6.93;;;2.90;;
56720;SDS011;53183;47.412;18.884;2024-03-23T15:13:33;14.27;;;3.40;;
56720;SDS011;53183;47.412;18.884;2024-03-23T15:15:59;9.80;;;3.45;;
56720;SDS011;53183;47.412;18.884;2024-03-23T15:18:26;6.43;;;2.95;;